首页
METAR-TAF:

METAR-TAF

机场 :

塔斯卡卢萨, 阿拉巴马州, 美国

纬度: 33-12-43N, 经度: 087-36-57W, 海拔: 52米

当前天气观测

该预报发布于18分钟前的01:53 UTC
静风
温度 22°C
湿度 69%
气压 1018 hPa
能見度: 14.5公里
天空无云

METAR: KTCL 070153Z AUTO 00000KT 9SM CLR 22/16 A3006 RMK AO2 SLP177 T02170161

时间: 21:11 (02:11 UTC)

预报

该预报发布于2小时和34分钟前的23:37 UTC
预报有效从07日的 00点(UTC)到 07日的 24点(UTC)
风速3节,风向南转西南
能見度: 10公里
阴天层高于20000英尺
从 07日的 1500点(UTC)
风速6节,风向南转西南
能見度: 10公里
散云层高于5000英尺
阴天层高于20000英尺
几率 30%
从 07日的 15点(UTC)到 07日的 18点(UTC)
能見度: 8.0公里
阴天层高于4000英尺
阵雨
从 07日的 1800点(UTC)
风速4节,风向多变
能見度: 10公里
阴天层高于4500英尺
阵雨

TAF: KTCL 062337Z 0700/0724 20003KT P6SM OVC200 FM071500 20006KT P6SM SCT050 OVC200 PROB30 0715/0718 5SM SHRA OVC040 FM071800 VRB04KT P6SM SHRA OVC045

超过4000个机场的气象观测和天气预报(METAR&TAF报告)。

可查询的气象台以黄色和红色小点在地图上表示。

将鼠标移到小点上方,可查看气象台名称。

然后点击查看天气观测和预报。

如需切换地图:点击带黑十字的绿色按钮放大地图;点击带横线的绿色按钮缩小地图;或者点击绿色箭头查看邻近地区的地图。


METAR-TAF: